| Record Date MM/DD/YYYY | Record Time HH:MM:SS | Record Julian Date NNN day of the year | Air Temperature Max (Degrees Fahrenheit F) | Time Max Air Temperature HH:MM:SS This is the time of max air temp for the prior hour interval listed for record [Time]. | Air Temperature Min (Degrees Fahrenheit F) | Time Min Air Temperature HH:MM:SS This is the time of min air temp for the prior hour interval listed for record [Time]. | Air Temperature Observed (Degrees Fahrenheit F) This is an instantaneous reading at the record [Time]. | Relative Humidity Max (Percent) | Time Max Relative Humidity HH:MM:SS This is the time of max relative humidity for the prior hour interval listed for record [Time]. | Relative Humidity Min (Percent) | Time Min Relative Humidity HH:MM:SS This is the time of min relative humidity for the prior hour interval listed for record [Time]. | Relative Humidity Observed (Percent) This is an instantaneous reading at the record [Time]. | Precipitation (Inches n.nn) rain fall that occurred during the prior hour interval listed for record [Time]. | Wind Speed (Miles Per Hour) Resultant Speed that occurred during the prior hour interval listed for record [Time]. | Wind Direction (Degrees) Resultant Direction that occurred during the prior hour interval listed for record [Time]. | Solar Radiation (Langley's) that occurred during the prior hour interval listed for record [Time]. | Soil Temperature Average at 2 inch depth (Degrees Fahrenheit F) that occurred during the prior hour interval listed for record [Time]. | Soil Temperature Observed at 2 inch depth (Degrees Fahrenheit F) This is an instantaneous reading at the record [Time]. | Soil Temperature Average at 4 inch depth (Degrees Fahrenheit F) that occurred during the prior hour interval listed for record [Time]. | Soil Temperature Observed at 4 inch depth (Degrees Fahrenheit F) This is an instantaneous reading at the record [Time]. |
|---|---|---|---|---|---|---|---|---|---|---|---|---|---|---|---|---|---|---|---|---|
| 08/28/2026 | 0:00:00 | 240 | 75 | 23:01:02 | 73 | 23:59:01 | 73 | 100 | 23:49:02 | 99 | 23:03:01 | 99.3 | 0 | 0.0 | 0 | |||||
| 08/28/2026 | 1:00:00 | 240 | 74 | 0:08:04 | 73 | 0:49:02 | 73 | 100 | 0:58:05 | 99 | 0:00:01 | 99.7 | 0 | 0.0 | 0 | |||||
| 08/28/2026 | 2:00:00 | 240 | 74 | 1:58:04 | 72 | 1:08:00 | 74 | 100 | 1:25:03 | 99 | 1:03:01 | 100 | 0 | 0.0 | 0 | |||||
| 08/28/2026 | 3:00:00 | 240 | 74 | 2:01:03 | 73 | 2:36:02 | 73 | 100 | 2:00:04 | 100 | 2:06:00 | 100 | 0 | 0.0 | 0 | |||||
| 08/28/2026 | 4:00:00 | 240 | 73 | 3:02:05 | 73 | 3:22:02 | 73 | 100 | 3:00:01 | 100 | 3:00:01 | 100 | 0 | 0.0 | 0 | |||||
| 08/28/2026 | 5:00:00 | 240 | 73 | 4:01:00 | 72 | 4:43:05 | 73 | 100 | 4:00:01 | 100 | 4:21:00 | 100 | 0 | 0.0 | 0 | |||||
| 08/28/2026 | 6:00:00 | 240 | 73 | 5:59:04 | 72 | 5:28:04 | 73 | 100 | 5:00:01 | 100 | 5:59:00 | 99.9 | 0 | 0.0 | 0 | |||||
| 08/28/2026 | 7:00:00 | 240 | 76 | 6:54:01 | 73 | 6:00:01 | 76 | 100 | 6:00:01 | 95 | 6:58:05 | 95.3 | 0 | 0.0 | 0 | |||||
| 08/28/2026 | 8:00:00 | 240 | 82 | 7:54:01 | 76 | 7:00:01 | 81 | 95 | 7:00:02 | 82 | 7:52:04 | 83.6 | 0 | 0.0 | 326 | |||||
| 08/28/2026 | 9:00:00 | 240 | 85 | 8:59:05 | 81 | 8:00:01 | 85 | 85 | 8:00:04 | 74 | 8:56:01 | 75.61 | 0 | 0.0 | 13 | |||||
| 08/28/2026 | 10:00:00 | 240 | 89 | 10:00:00 | 85 | 9:05:02 | 89 | 78 | 9:07:01 | 59 | 9:57:03 | 63.52 | 0 | 0.0 | 59 | |||||
| 08/28/2026 | 11:00:00 | 240 | 92 | 10:33:05 | 88 | 10:24:01 | 91 | 65 | 10:08:05 | 41 | 10:41:03 | 46.17 | 0 | 0.8 | 356 | |||||
| 08/28/2026 | 12:00:00 | 240 | 92 | 11:18:03 | 89 | 11:31:00 | 91 | 56 | 11:32:01 | 43 | 11:53:00 | 49.82 | 0 | 1.3 | 349 | |||||
| 08/28/2026 | 13:00:00 | 240 | 94 | 12:48:04 | 90 | 12:30:05 | 91 | 53 | 12:02:00 | 40 | 12:50:00 | 49.11 | 0 | 1.4 | 342 | |||||
| 08/28/2026 | 14:00:00 | 240 | 93 | 13:23:02 | 91 | 13:29:05 | 93 | 51 | 13:06:01 | 38 | 13:48:05 | 38.27 | 0 | 1.2 | 335 | |||||
| 08/28/2026 | 15:00:00 | 240 | 94 | 14:29:03 | 89 | 14:55:04 | 90 | 46 | 14:59:01 | 36 | 14:44:01 | 44.53 | 0 | 1.0 | 338 | |||||
| 08/28/2026 | 16:00:00 | 240 | 91 | 15:28:02 | 89 | 15:43:02 | 90 | 48 | 15:04:05 | 38 | 15:54:02 | 40.83 | 0 | 0.0 | 350 | |||||
| 08/28/2026 | 17:00:00 | 240 | 92 | 16:59:05 | 90 | 16:08:03 | 92 | 47 | 16:21:00 | 37 | 16:52:04 | 41.84 | 0 | 0.0 | 0 | |||||
| 08/28/2026 | 18:00:00 | 240 | 93 | 17:13:01 | 88 | 17:54:01 | 89 | 54 | 17:58:04 | 37 | 17:05:02 | 44.32 | 0 | 0.0 | 0 | |||||
| 08/28/2026 | 19:00:00 | 240 | 88 | 18:00:01 | 79 | 18:59:05 | 79 | 68 | 18:25:05 | 46 | 18:00:02 | 66.42 | 0 | 0.0 | 0 | |||||
| 08/28/2026 | 20:00:00 | 240 | 79 | 19:00:01 | 76 | 19:44:02 | 77 | 76 | 19:39:05 | 67 | 19:01:02 | 70.65 | 0 | 0.0 | 0 | |||||
| 08/28/2026 | 21:00:00 | 240 | 77 | 20:00:01 | 75 | 20:33:04 | 76 | 76 | 20:30:00 | 69 | 20:00:03 | 72.05 | 0 | 0.0 | 0 | |||||
| 08/28/2026 | 22:00:00 | 240 | 76 | 21:09:01 | 75 | 21:59:05 | 75 | 77 | 21:59:00 | 72 | 21:14:00 | 76.2 | 0 | 0.0 | 0 | |||||
| 08/28/2026 | 23:00:00 | 240 | 75 | 22:00:01 | 73 | 22:55:03 | 73 | 83 | 22:54:01 | 76 | 22:00:01 | 81.4 | 0 | 0.0 | 0 | |||||
| 08/29/2026 | 0:00:00 | 241 | 74 | 23:41:00 | 73 | 23:08:03 | 74 | 82 | 23:08:01 | 79 | 23:40:02 | 80.3 | 0 | 0.0 | 0 | |||||
| 08/29/2026 | 1:00:00 | 241 | 74 | 0:00:03 | 72 | 0:59:05 | 72 | 85 | 1:00:00 | 80 | 0:00:01 | 84.8 | 0 | 0.0 | 0 | |||||
| 08/29/2026 | 2:00:00 | 241 | 72 | 1:00:01 | 71 | 1:58:01 | 71 | 87 | 1:57:02 | 85 | 1:00:01 | 86.8 | 0 | 0.0 | 0 | |||||
| 08/29/2026 | 3:00:00 | 241 | 71 | 2:00:03 | 70 | 3:00:00 | 70 | 89 | 2:59:05 | 87 | 2:01:02 | 88.8 | 0 | 0.0 | 0 | |||||
| 08/29/2026 | 4:00:00 | 241 | 70 | 3:00:01 | 69 | 3:55:00 | 69 | 91 | 3:56:02 | 89 | 3:00:02 | 90.5 | 0 | 0.0 | 0 | |||||
| 08/29/2026 | 5:00:00 | 241 | 70 | 4:07:00 | 68 | 4:59:05 | 68 | 94 | 4:59:03 | 90 | 4:07:03 | 94.3 | 0 | 0.0 | 0 | |||||
| 08/29/2026 | 6:00:00 | 241 | 69 | 6:00:00 | 68 | 5:00:04 | 69 | 95 | 5:52:00 | 94 | 6:00:00 | 93.9 | 0 | 0.0 | 0 | |||||
| 08/29/2026 | 7:00:00 | 241 | 75 | 6:59:01 | 69 | 6:00:01 | 75 | 94 | 6:00:01 | 83 | 6:57:05 | 82.7 | 0 | 0.0 | 0 | |||||
| 08/29/2026 | 8:00:00 | 241 | 79 | 8:00:00 | 75 | 7:00:01 | 79 | 83 | 7:05:01 | 74 | 7:58:04 | 74.54 | 0 | 0.0 | 0 | |||||
| 08/29/2026 | 9:00:00 | 241 | 84 | 9:00:00 | 79 | 8:00:01 | 84 | 75 | 8:08:02 | 64 | 8:57:05 | 66.14 | 0 | 0.0 | 20 | |||||
| 08/29/2026 | 10:00:00 | 241 | 88 | 9:57:04 | 84 | 9:00:01 | 88 | 67 | 9:00:01 | 54 | 9:58:02 | 56.23 | 0 | 0.0 | 77 | |||||
| 08/29/2026 | 11:00:00 | 241 | 92 | 10:57:00 | 88 | 10:00:05 | 91 | 58 | 10:03:02 | 44 | 10:57:03 | 45.88 | 0 | 0.1 | 53 | |||||
| 08/29/2026 | 12:00:00 | 241 | 94 | 11:38:04 | 91 | 11:22:03 | 93 | 53 | 11:49:05 | 44 | 11:12:05 | 45.95 | 0 | 0.5 | 63 | |||||
| 08/29/2026 | 13:00:00 | 241 | 95 | 13:00:00 | 92 | 12:53:02 | 95 | 52 | 12:23:05 | 44 | 12:58:04 | 46.41 | 0 | 0.1 | 73 | |||||
| 08/29/2026 | 14:00:00 | 241 | 98 | 13:37:01 | 93 | 13:11:00 | 94 | 51 | 13:59:05 | 41 | 13:20:02 | 49.98 | 0 | 0.2 | 92 | |||||
| 08/29/2026 | 15:00:00 | 241 | 96 | 14:12:02 | 91 | 14:43:04 | 91 | 56 | 14:57:02 | 45 | 14:12:03 | 54.27 | 0 | 0.1 | 61 | |||||
| 08/29/2026 | 16:00:00 | 241 | 95 | 15:49:04 | 91 | 15:05:02 | 94 | 57 | 15:01:00 | 45 | 15:51:00 | 51.34 | 0 | 0.0 | 113 | |||||
| 08/29/2026 | 17:00:00 | 241 | 94 | 16:00:01 | 87 | 16:34:05 | 91 | 67 | 16:37:00 | 50 | 16:00:02 | 59.48 | 0 | 0.2 | 102 | |||||
| 08/29/2026 | 18:00:00 | 241 | 91 | 17:05:00 | 86 | 17:59:04 | 86 | 65 | 17:59:02 | 56 | 17:15:05 | 64.05 | 0 | 0.1 | 78 | |||||
| 08/29/2026 | 19:00:00 | 241 | 86 | 18:00:01 | 82 | 18:46:00 | 83 | 75 | 18:45:02 | 64 | 18:02:01 | 72.34 | 0 | 0.0 | 0 | |||||
| 08/29/2026 | 20:00:00 | 241 | 83 | 19:08:05 | 80 | 19:59:05 | 80 | 79 | 19:54:01 | 71 | 19:07:05 | 78.41 | 0 | 0.0 | 0 | |||||
| 08/29/2026 | 21:00:00 | 241 | 80 | 20:00:02 | 78 | 20:30:00 | 79 | 87 | 20:30:04 | 79 | 20:00:01 | 81.5 | 0 | 0.0 | 0 | |||||
| 08/29/2026 | 22:00:00 | 241 | 79 | 21:00:01 | 77 | 21:58:04 | 77 | 88 | 22:00:00 | 82 | 21:00:01 | 87.5 | 0 | 0.0 | 0 | |||||
| 08/29/2026 | 23:00:00 | 241 | 77 | 22:56:04 | 76 | 22:29:00 | 77 | 91 | 22:08:03 | 88 | 22:00:01 | 89.7 | 0 | 0.0 | 0 | |||||
| 08/30/2026 | 0:00:00 | 242 | 77 | 23:00:01 | 76 | 23:57:05 | 76 | 92 | 23:59:05 | 90 | 23:00:02 | 92.4 | 0 | 0.0 | 0 | |||||
| 08/30/2026 | 1:00:00 | 242 | 76 | 0:03:05 | 75 | 0:47:04 | 75 | 94 | 0:52:00 | 92 | 0:00:01 | 93.9 | 0 | 0.0 | 151 | |||||
| 08/30/2026 | 2:00:00 | 242 | 75 | 1:00:01 | 74 | 1:44:01 | 75 | 96 | 1:50:00 | 94 | 1:00:05 | 95.5 | 0 | 0.0 | 0 | |||||
| 08/30/2026 | 3:00:00 | 242 | 75 | 2:00:01 | 74 | 2:59:05 | 74 | 97 | 2:36:02 | 96 | 2:00:03 | 96.9 | 0 | 0.0 | 0 | |||||
| 08/30/2026 | 4:00:00 | 242 | 74 | 3:01:03 | 73 | 3:38:04 | 73 | 99 | 3:49:05 | 97 | 3:00:02 | 98.6 | 0 | 0.0 | 0 | |||||
| 08/30/2026 | 5:00:00 | 242 | 73 | 4:35:01 | 73 | 4:11:00 | 73 | 99 | 4:55:00 | 99 | 4:03:03 | 99.1 | 0 | 0.0 | 0 | |||||
| 08/30/2026 | 6:00:00 | 242 | 74 | 6:00:00 | 73 | 5:06:01 | 74 | 99 | 5:13:03 | 99 | 5:59:05 | 98.5 | 0 | 0.0 | 0 | |||||
| 08/30/2026 | 7:00:00 | 242 | 80 | 6:56:05 | 74 | 6:00:01 | 80 | 99 | 6:00:01 | 88 | 6:57:05 | 88.7 | 0 | 0.0 | 128 | |||||
| 08/30/2026 | 8:00:00 | 242 | 86 | 7:56:01 | 80 | 7:01:02 | 85 | 89 | 7:00:02 | 73 | 7:57:00 | 75.28 | 0 | 0.0 | 140 | |||||
| 08/30/2026 | 9:00:00 | 242 | 88 | 8:12:05 | 85 | 8:39:04 | 88 | 77 | 8:01:03 | 65 | 8:55:01 | 67.07 | 0 | 0.3 | 120 | |||||
| 08/30/2026 | 10:00:00 | 242 | 91 | 9:52:02 | 87 | 9:17:04 | 91 | 70 | 9:18:03 | 57 | 9:58:03 | 59.2 | 0 | 0.9 | 128 | |||||
| 08/30/2026 | 11:00:00 | 242 | 94 | 10:59:04 | 87 | 10:10:05 | 94 | 68 | 10:12:05 | 51 | 10:59:01 | 52.05 | 0 | 2.2 | 131 | |||||
| 08/30/2026 | 12:00:00 | 242 | 95 | 11:02:03 | 88 | 11:37:04 | 92 | 62 | 11:38:03 | 49 | 11:04:03 | 56.39 | 0 | 2.7 | 121 | |||||
| 08/30/2026 | 13:00:00 | 242 | 96 | 12:55:00 | 91 | 12:05:05 | 93 | 58 | 12:06:01 | 47 | 12:57:04 | 51.85 | 0 | 1.9 | 115 | |||||
| 08/30/2026 | 14:00:00 | 242 | 98 | 13:50:00 | 90 | 13:13:00 | 91 | 58 | 13:16:00 | 44 | 13:51:01 | 54.35 | 0 | 1.2 | 113 | |||||
| 08/30/2026 | 15:00:00 | 242 | 93 | 14:55:01 | 90 | 14:49:05 | 93 | 59 | 14:51:00 | 49 | 14:08:03 | 51.59 | 0 | 1.3 | 91 | |||||
| 08/30/2026 | 16:00:00 | 242 | 94 | 15:49:04 | 91 | 15:29:02 | 93 | 55 | 15:25:04 | 47 | 15:50:00 | 52.42 | 0 | 2.5 | 103 | |||||
| 08/30/2026 | 17:00:00 | 242 | 95 | 16:16:01 | 92 | 16:01:04 | 94 | 54 | 16:02:00 | 46 | 16:47:05 | 47.06 | 0 | 0.2 | 113 | |||||
| 08/30/2026 | 18:00:00 | 242 | 95 | 17:07:05 | 89 | 18:00:00 | 89 | 59 | 18:00:00 | 45 | 17:10:04 | 58.75 | 0 | 0.0 | 107 | |||||
| 08/30/2026 | 19:00:00 | 242 | 89 | 18:00:01 | 82 | 18:49:02 | 83 | 73 | 18:48:01 | 57 | 18:08:00 | 72.49 | 0 | 0.0 | 0 | |||||
| 08/30/2026 | 20:00:00 | 242 | 83 | 19:04:00 | 80 | 19:39:01 | 82 | 79 | 19:45:04 | 71 | 19:05:01 | 75.81 | 0 | 0.0 | 0 | |||||
| 08/30/2026 | 21:00:00 | 242 | 82 | 20:00:01 | 77 | 20:51:00 | 78 | 86 | 20:45:05 | 75 | 20:01:05 | 84 | 0 | 0.0 | 0 | |||||
| 08/30/2026 | 22:00:00 | 242 | 81 | 21:40:03 | 77 | 22:00:00 | 77 | 89 | 21:59:03 | 77 | 21:40:02 | 89.1 | 0 | 0.0 | 0 | |||||
| 08/30/2026 | 23:00:00 | 242 | 77 | 22:26:02 | 76 | 22:36:00 | 77 | 91 | 22:17:03 | 88 | 22:27:01 | 89.2 | 0 | 0.0 | 0 | |||||
| 08/31/2026 | 0:00:00 | 243 | 77 | 23:17:00 | 76 | 23:55:00 | 76 | 93 | 23:59:04 | 88 | 23:17:04 | 92.4 | 0 | 0.0 | 0 | |||||
| 08/31/2026 | 1:00:00 | 243 | 76 | 0:03:02 | 74 | 0:46:00 | 75 | 96 | 0:49:01 | 92 | 0:00:01 | 94.7 | 0 | 0.0 | 0 | |||||
| 08/31/2026 | 2:00:00 | 243 | 75 | 1:13:05 | 73 | 1:58:04 | 73 | 97 | 2:00:00 | 95 | 1:00:01 | 97.2 | 0 | 0.0 | 0 | |||||
| 08/31/2026 | 3:00:00 | 243 | 74 | 2:39:02 | 73 | 2:33:00 | 73 | 98 | 2:39:01 | 97 | 2:05:05 | 97.6 | 0 | 0.0 | 0 | |||||
| 08/31/2026 | 4:00:00 | 243 | 74 | 3:49:02 | 73 | 3:34:01 | 73 | 99 | 3:47:00 | 98 | 3:00:02 | 98.3 | 0 | 0.0 | 0 | |||||
| 08/31/2026 | 5:00:00 | 243 | 73 | 4:10:01 | 72 | 4:54:05 | 72 | 99 | 5:00:00 | 98 | 4:00:04 | 99.2 | 0 | 0.0 | 0 | |||||
| 08/31/2026 | 6:00:00 | 243 | 75 | 6:00:00 | 72 | 5:00:01 | 75 | 100 | 5:53:01 | 99 | 5:14:00 | 99.2 | 0 | 0.0 | 0 | |||||
| 08/31/2026 | 7:00:00 | 243 | 80 | 6:52:00 | 75 | 6:00:01 | 80 | 99 | 6:00:01 | 87 | 6:52:03 | 88.3 | 0 | 0.0 | 103 | |||||
| 08/31/2026 | 8:00:00 | 243 | 85 | 8:00:00 | 80 | 7:00:01 | 85 | 89 | 7:01:04 | 72 | 7:59:01 | 73.21 | 0 | 0.0 | 78 | |||||
| 08/31/2026 | 9:00:00 | 243 | 89 | 9:00:00 | 85 | 8:00:05 | 89 | 75 | 8:01:04 | 64 | 8:31:00 | 65.42 | 0 | 0.0 | 35 | |||||
| 08/31/2026 | 10:00:00 | 243 | 91 | 9:55:01 | 88 | 9:11:03 | 90 | 67 | 9:12:04 | 60 | 9:20:00 | 62.05 | 0 | 0.1 | 57 | |||||
| 08/31/2026 | 11:00:00 | 243 | 93 | 10:17:03 | 88 | 10:32:03 | 91 | 66 | 10:01:00 | 56 | 10:18:01 | 60.75 | 0 | 0.0 | 0 | |||||
| 08/31/2026 | 12:00:00 | 243 | 95 | 11:42:03 | 90 | 11:31:02 | 94 | 62 | 11:54:04 | 50 | 11:42:04 | 53.57 | 0 | 0.4 | 89 | |||||
| 08/31/2026 | 13:00:00 | 243 | 97 | 12:51:00 | 93 | 12:26:05 | 95 | 55 | 12:01:00 | 44 | 12:44:02 | 51.14 | 0 | 0.7 | 101 | |||||
| 08/31/2026 | 14:00:00 | 243 | 100 | 13:58:03 | 95 | 13:00:03 | 98 | 52 | 13:01:00 | 43 | 13:58:03 | 45.28 | 0 | 1.3 | 97 | |||||
| 08/31/2026 | 15:00:00 | 243 | 97 | 14:00:01 | 92 | 14:23:00 | 95 | 54 | 14:25:05 | 45 | 14:32:03 | 48.01 | 0 | 1.2 | 83 | |||||
| 08/31/2026 | 16:00:00 | 243 | 96 | 15:49:04 | 91 | 15:19:04 | 95 | 54 | 15:09:03 | 46 | 15:36:00 | 46.59 | 0 | 0.7 | 85 | |||||
| 08/31/2026 | 17:00:00 | 243 | 95 | 16:07:03 | 94 | 16:31:00 | 94 | 51 | 16:53:02 | 45 | 16:57:03 | 50.07 | 0 | 0.6 | 84 | |||||
| 08/31/2026 | 18:00:00 | 243 | 94 | 17:00:01 | 91 | 17:59:01 | 91 | 55 | 17:55:01 | 47 | 17:02:00 | 54.11 | 0 | 0.0 | 87 | |||||
| 08/31/2026 | 19:00:00 | 243 | 91 | 18:00:04 | 85 | 18:57:04 | 85 | 67 | 18:56:05 | 54 | 18:03:01 | 64.61 | 0 | 0.0 | 0 | |||||
| 08/31/2026 | 20:00:00 | 243 | 85 | 19:01:03 | 82 | 19:54:04 | 82 | 78 | 19:53:03 | 64 | 19:00:03 | 76.72 | 0 | 0.0 | 0 | |||||
| 08/31/2026 | 21:00:00 | 243 | 82 | 20:15:01 | 81 | 20:59:05 | 81 | 84 | 20:38:05 | 77 | 20:00:01 | 82.4 | 0 | 0.0 | 0 | |||||
| 08/31/2026 | 22:00:00 | 243 | 82 | 21:11:01 | 78 | 21:54:00 | 79 | 88 | 21:56:05 | 77 | 21:09:01 | 86 | 0 | 0.0 | 0 | |||||
| 08/31/2026 | 23:00:00 | 243 | 81 | 22:17:00 | 78 | 22:54:05 | 78 | 91 | 22:50:00 | 81 | 22:17:01 | 89.1 | 0 | 0.0 | 0 | |||||
| 09/01/2026 | 0:00:00 | 244 | 78 | 23:05:03 | 78 | 23:57:02 | 78 | 91 | 23:59:01 | 89 | 23:01:03 | 90.9 | 0 | 0.0 | 0 | |||||
| 09/01/2026 | 1:00:00 | 244 | 78 | 0:00:01 | 77 | 0:46:03 | 77 | 91 | 0:14:01 | 89 | 0:38:05 | 90.5 | 0 | 0.0 | 0 | |||||
| 09/01/2026 | 2:00:00 | 244 | 78 | 1:19:01 | 77 | 1:59:00 | 77 | 91 | 1:58:05 | 88 | 1:19:02 | 90.6 | 0 | 0.0 | 0 | |||||
| 09/01/2026 | 3:00:00 | 244 | 77 | 2:01:03 | 76 | 2:38:01 | 76 | 92 | 2:39:03 | 90 | 2:53:04 | 91 | 0 | 0.0 | 0 | |||||
| 09/01/2026 | 4:00:00 | 244 | 76 | 3:00:02 | 75 | 3:59:04 | 75 | 93 | 3:25:03 | 91 | 3:00:01 | 92.9 | 0 | 0.0 | 0 | |||||
| 09/01/2026 | 5:00:00 | 244 | 75 | 4:00:01 | 74 | 4:59:03 | 74 | 96 | 4:58:00 | 93 | 4:08:01 | 95.5 | 0 | 0.0 | 0 | |||||
| 09/01/2026 | 6:00:00 | 244 | 76 | 5:59:05 | 74 | 5:00:01 | 76 | 96 | 5:09:02 | 94 | 6:00:00 | 94.3 | 0 | 0.0 | 0 | |||||
| 09/01/2026 | 7:00:00 | 244 | 84 | 7:00:00 | 76 | 6:00:01 | 84 | 94 | 6:00:03 | 78 | 6:58:00 | 78.68 | 0 | 0.0 | 0 | |||||
| 09/01/2026 | 8:00:00 | 244 | 89 | 8:00:00 | 84 | 7:03:05 | 89 | 79 | 7:00:02 | 68 | 7:58:00 | 69.26 | 0 | 0.0 | 0 | |||||
| 09/01/2026 | 9:00:00 | 244 | 91 | 8:52:00 | 86 | 8:21:00 | 90 | 73 | 8:21:01 | 62 | 8:52:03 | 64.96 | 0 | 0.0 | 0 | |||||
| 09/01/2026 | 10:00:00 | 244 | 93 | 9:08:05 | 90 | 9:19:02 | 93 | 66 | 9:18:01 | 55 | 9:59:02 | 56 | 0 | 0.1 | 64 | |||||
| 09/01/2026 | 11:00:00 | 244 | 97 | 10:13:03 | 91 | 10:27:05 | 91 | 59 | 10:28:01 | 48 | 10:12:04 | 54.46 | 0 | 0.0 | 103 | |||||
| 09/01/2026 | 12:00:00 | 244 | 96 | 11:26:01 | 91 | 11:07:04 | 94 | 58 | 11:05:04 | 48 | 11:35:01 | 49.09 | 0 | 0.1 | 71 | |||||
| 09/01/2026 | 13:00:00 | 244 | 99 | 12:48:04 | 93 | 12:31:01 | 96 | 52 | 12:32:00 | 43 | 12:43:02 | 43.88 | 0 | 0.3 | 82 | |||||
| 09/01/2026 | 14:00:00 | 244 | 100 | 13:08:00 | 96 | 13:01:01 | 98 | 47 | 13:12:00 | 38 | 13:59:02 | 38.96 | 0 | 1.1 | 78 | |||||
| 09/01/2026 | 15:00:00 | 244 | 99 | 14:18:02 | 95 | 14:28:00 | 99 | 47 | 14:30:00 | 38 | 14:02:04 | 42.93 | 0 | 0.8 | 74 | |||||
| 09/01/2026 | 16:00:00 | 244 | 101 | 15:03:01 | 94 | 15:28:03 | 97 | 50 | 15:29:01 | 38 | 15:03:03 | 44.26 | 0 | 0.6 | 96 | |||||
| 09/01/2026 | 17:00:00 | 244 | 97 | 16:59:01 | 95 | 16:37:00 | 97 | 46 | 16:28:05 | 41 | 16:01:00 | 42.71 | 0 | 0.1 | 108 | |||||
| 09/01/2026 | 18:00:00 | 244 | 97 | 17:02:03 | 91 | 17:58:03 | 91 | 54 | 17:57:04 | 42 | 17:02:00 | 53.62 | 0 | 0.0 | 111 | |||||
| 09/01/2026 | 19:00:00 | 244 | 91 | 18:00:02 | 86 | 19:00:00 | 86 | 66 | 18:32:01 | 53 | 18:03:01 | 64.49 | 0 | 0.0 | 0 | |||||
| 09/01/2026 | 20:00:00 | 244 | 86 | 19:26:04 | 82 | 19:59:05 | 82 | 78 | 20:00:00 | 64 | 19:00:02 | 77.93 | 0 | 0.0 | 0 | |||||
| 09/01/2026 | 21:00:00 | 244 | 82 | 20:41:02 | 81 | 20:31:02 | 82 | 81 | 20:58:02 | 76 | 20:40:02 | 79.91 | 0 | 0.0 | 0 | |||||
| 09/01/2026 | 22:00:00 | 244 | 82 | 21:01:04 | 80 | 21:34:05 | 81 | 87 | 21:30:05 | 79 | 21:01:03 | 82.5 | 0 | 0.0 | 0 | |||||
| 09/01/2026 | 23:00:00 | 244 | 82 | 22:33:00 | 80 | 22:08:00 | 81 | 84 | 22:08:00 | 75 | 22:32:02 | 80.6 | 0 | 0.0 | 0 | |||||
| 09/02/2026 | 0:00:00 | 245 | 81 | 23:00:01 | 78 | 23:36:03 | 79 | 86 | 23:41:04 | 80 | 23:12:00 | 82.9 | 0 | 0.0 | 0 | |||||
| 09/02/2026 | 1:00:00 | 245 | 79 | 0:05:05 | 77 | 1:00:00 | 77 | 88 | 0:59:05 | 82 | 0:05:03 | 88 | 0 | 0.0 | 0 | |||||
| 09/02/2026 | 2:00:00 | 245 | 78 | 1:22:03 | 75 | 1:59:03 | 75 | 91 | 1:59:05 | 86 | 1:23:00 | 91.4 | 0 | 0.0 | 0 | |||||
| 09/02/2026 | 3:00:00 | 245 | 77 | 2:20:03 | 75 | 2:53:03 | 75 | 94 | 2:56:03 | 89 | 2:21:01 | 93.9 | 0 | 0.0 | 0 | |||||
| 09/02/2026 | 4:00:00 | 245 | 75 | 3:04:02 | 74 | 3:54:02 | 74 | 96 | 3:59:04 | 94 | 3:16:03 | 95.8 | 0 | 0.0 | 0 | |||||
| 09/02/2026 | 5:00:00 | 245 | 74 | 4:00:01 | 73 | 5:00:00 | 73 | 97 | 4:48:01 | 96 | 4:09:01 | 96.2 | 0 | 0.0 | 0 | |||||
| 09/02/2026 | 6:00:00 | 245 | 74 | 5:59:05 | 73 | 5:32:05 | 74 | 98 | 5:56:04 | 96 | 5:00:02 | 97.1 | 0 | 0.0 | 0 | |||||
| 09/02/2026 | 7:00:00 | 245 | 82 | 6:47:02 | 74 | 6:00:01 | 82 | 97 | 6:00:01 | 82 | 6:59:04 | 82.1 | 0 | 0.0 | 0 | |||||
| 09/02/2026 | 8:00:00 | 245 | 87 | 7:57:01 | 82 | 7:00:03 | 87 | 82 | 7:00:03 | 68 | 7:58:00 | 69.67 | 0 | 0.0 | 283 | |||||
| 09/02/2026 | 9:00:00 | 245 | 92 | 8:55:02 | 87 | 8:00:01 | 91 | 71 | 8:01:03 | 58 | 8:55:05 | 59.73 | 0 | 0.0 | 0 | |||||
| 09/02/2026 | 10:00:00 | 245 | 95 | 10:00:00 | 91 | 9:05:00 | 95 | 61 | 9:00:05 | 48 | 9:59:04 | 49.47 | 0 | 0.0 | 52 | |||||
| 09/02/2026 | 11:00:00 | 245 | 97 | 10:45:03 | 94 | 10:58:01 | 95 | 54 | 10:23:01 | 47 | 10:37:04 | 50.11 | 0 | 0.1 | 60 | |||||
| 09/02/2026 | 12:00:00 | 245 | 102 | 11:48:01 | 96 | 11:00:01 | 101 | 52 | 11:13:04 | 35 | 11:48:00 | 37.52 | 0 | 0.5 | 106 | |||||
| 09/02/2026 | 13:00:00 | 245 | 103 | 12:32:04 | 99 | 12:50:00 | 101 | 42 | 12:56:05 | 34 | 12:03:00 | 39.32 | 0 | 0.8 | 121 | |||||
| 09/02/2026 | 14:00:00 | 245 | 103 | 13:38:00 | 98 | 13:53:00 | 100 | 42 | 13:53:02 | 34 | 13:09:05 | 39.12 | 0 | 1.3 | 134 | |||||
| 09/02/2026 | 15:00:00 | 245 | 103 | 14:12:02 | 97 | 14:17:01 | 100 | 43 | 14:17:03 | 35 | 14:12:03 | 40.31 | 0 | 0.9 | 111 | |||||
| 09/02/2026 | 16:00:00 | 245 | 101 | 15:07:02 | 96 | 15:25:02 | 101 | 44 | 15:26:00 | 36 | 15:10:03 | 39.11 | 0 | 0.6 | 111 | |||||
| 09/02/2026 | 17:00:00 | 245 | 101 | 16:00:01 | 97 | 17:00:00 | 97 | 44 | 16:40:03 | 38 | 16:00:05 | 41.82 | 0 | 0.2 | 129 | |||||
| 09/02/2026 | 18:00:00 | 245 | 97 | 17:00:01 | 93 | 18:00:00 | 93 | 51 | 18:00:00 | 42 | 17:04:03 | 50.9 | 0 | 0.0 | 0 | |||||
| 09/02/2026 | 19:00:00 | 245 | 93 | 18:00:01 | 87 | 18:53:05 | 88 | 66 | 18:53:03 | 51 | 18:00:01 | 62.57 | 0 | 0.0 | 0 | |||||
| 09/02/2026 | 20:00:00 | 245 | 88 | 19:03:05 | 85 | 19:46:04 | 86 | 73 | 19:46:02 | 61 | 19:29:03 | 71.03 | 0 | 0.0 | 0 | |||||
| 09/02/2026 | 21:00:00 | 245 | 85 | 20:00:01 | 82 | 20:54:04 | 82 | 77 | 20:56:05 | 71 | 20:00:01 | 77.24 | 0 | 0.0 | 0 | |||||
| 09/02/2026 | 22:00:00 | 245 | 84 | 21:31:03 | 82 | 21:59:04 | 82 | 78 | 22:00:00 | 74 | 21:31:03 | 77.95 | 0 | 0.0 | 0 | |||||
| 09/02/2026 | 23:00:00 | 245 | 82 | 22:00:01 | 80 | 22:46:01 | 81 | 84 | 22:44:01 | 78 | 22:00:01 | 83.1 | 0 | 0.0 | 0 | |||||
| 09/03/2026 | 0:00:00 | 246 | 81 | 23:02:02 | 79 | 23:40:03 | 79 | 92 | 23:45:00 | 83 | 23:01:04 | 89.4 | 0 | 0.0 | 0 | |||||
| 09/03/2026 | 1:00:00 | 246 | 79 | 0:00:01 | 78 | 0:27:03 | 79 | 94 | 1:00:00 | 89 | 0:01:02 | 93.8 | 0 | 0.0 | 0 | |||||
| 09/03/2026 | 2:00:00 | 246 | 79 | 1:02:02 | 77 | 2:00:00 | 77 | 94 | 1:18:04 | 91 | 2:00:00 | 91.4 | 0 | 0.0 | 0 | |||||
| 09/03/2026 | 3:00:00 | 246 | 78 | 2:25:04 | 77 | 2:58:05 | 77 | 95 | 2:23:01 | 91 | 2:00:03 | 93.5 | 0 | 0.0 | 0 | |||||
| 09/03/2026 | 4:00:00 | 246 | 77 | 3:38:04 | 76 | 3:26:01 | 77 | 95 | 3:53:02 | 93 | 3:09:05 | 94.9 | 0 | 0.0 | 0 | |||||
| 09/03/2026 | 5:00:00 | 246 | 77 | 4:00:01 | 76 | 4:09:02 | 76 | 96 | 4:14:02 | 95 | 4:02:01 | 94.9 | 0 | 0.0 | 0 | |||||
| 09/03/2026 | 6:00:00 | 246 | 76 | 5:00:01 | 75 | 5:46:04 | 76 | 97 | 5:39:00 | 95 | 5:11:01 | 96.1 | 0 | 0.0 | 0 | |||||
| 09/03/2026 | 7:00:00 | 246 | 82 | 7:00:00 | 76 | 6:00:01 | 82 | 96 | 6:00:01 | 84 | 6:58:00 | 84.1 | 0 | 0.0 | 0 | |||||
| 09/03/2026 | 8:00:00 | 246 | 88 | 7:59:05 | 82 | 7:00:01 | 88 | 84 | 7:00:01 | 68 | 7:59:03 | 68.1 | 0 | 0.0 | 53 | |||||
| 09/03/2026 | 9:00:00 | 246 | 90 | 8:43:05 | 87 | 8:05:03 | 90 | 69 | 8:05:05 | 62 | 8:55:01 | 64.29 | 0 | 0.0 | 58 | |||||
| 09/03/2026 | 10:00:00 | 246 | 95 | 10:00:00 | 90 | 9:06:00 | 95 | 66 | 9:07:05 | 53 | 9:54:05 | 53.77 | 0 | 0.2 | 70 | |||||
| 09/03/2026 | 11:00:00 | 246 | 99 | 10:55:01 | 94 | 10:03:00 | 97 | 57 | 10:11:02 | 45 | 10:54:04 | 49 | 0 | 0.7 | 70 | |||||
| 09/03/2026 | 12:00:00 | 246 | 101 | 11:51:05 | 97 | 11:04:05 | 101 | 50 | 11:09:00 | 36 | 11:52:02 | 37.27 | 0 | 2.7 | 109 | |||||
| 09/03/2026 | 13:00:00 | 246 | 102 | 12:30:00 | 98 | 12:37:04 | 99 | 43 | 12:44:00 | 35 | 12:06:00 | 40.91 | 0 | 2.1 | 113 | |||||
| 09/03/2026 | 14:00:00 | 246 | 103 | 13:53:01 | 98 | 13:01:01 | 100 | 44 | 13:04:00 | 36 | 13:52:01 | 38.52 | 0 | 2.3 | 117 | |||||
| 09/03/2026 | 15:00:00 | 246 | 100 | 14:00:01 | 92 | 14:51:03 | 96 | 51 | 14:52:01 | 39 | 14:00:01 | 45.01 | 0 | 0.7 | 154 | |||||
| 09/03/2026 | 16:00:00 | 246 | 103 | 15:34:05 | 96 | 15:00:01 | 99 | 47 | 15:00:02 | 37 | 15:34:04 | 42.81 | 0 | 0.9 | 140 | |||||
| 09/03/2026 | 17:00:00 | 246 | 99 | 16:13:05 | 95 | 17:00:00 | 95 | 49 | 16:59:00 | 41 | 16:14:02 | 48.29 | 0 | 2.1 | 119 | |||||
| 09/03/2026 | 18:00:00 | 246 | 95 | 17:00:01 | 85 | 18:00:00 | 85 | 68 | 18:00:00 | 48 | 17:00:04 | 68.09 | 0 | 1.3 | 61 | |||||
| 09/03/2026 | 19:00:00 | 246 | 85 | 18:00:01 | 82 | 18:59:03 | 82 | 75 | 19:00:00 | 68 | 18:00:02 | 74.99 | 0 | 0.0 | 0 | |||||
| 09/03/2026 | 20:00:00 | 246 | 82 | 19:26:02 | 81 | 19:06:00 | 82 | 76 | 19:59:04 | 73 | 19:33:02 | 75.84 | 0 | 0.0 | 0 | |||||
| 09/03/2026 | 21:00:00 | 246 | 82 | 20:12:00 | 79 | 20:59:05 | 79 | 84 | 21:00:00 | 76 | 20:12:02 | 84.4 | 0 | 0.0 | 0 | |||||
| 09/03/2026 | 22:00:00 | 246 | 80 | 21:14:01 | 78 | 21:57:01 | 78 | 85 | 21:59:05 | 81 | 21:21:01 | 85.2 | 0 | 0.0 | 0 | |||||
| 09/03/2026 | 23:00:00 | 246 | 79 | 22:38:02 | 78 | 22:18:03 | 78 | 87 | 22:21:02 | 84 | 22:38:03 | 86.2 | 0 | 0.0 | 0 | |||||
| 09/04/2026 | 0:00:00 | 247 | 79 | 23:50:03 | 78 | 23:30:02 | 78 | 89 | 23:32:01 | 86 | 23:00:01 | 87.4 | 0 | 0.0 | 0 | |||||
| 09/04/2026 | 1:00:00 | 247 | 79 | 0:03:03 | 77 | 0:54:00 | 77 | 90 | 0:47:00 | 87 | 0:09:05 | 89.7 | 0 | 0.0 | 0 | |||||
| 09/04/2026 | 2:00:00 | 247 | 77 | 1:00:01 | 76 | 1:38:05 | 77 | 94 | 1:46:02 | 90 | 1:00:01 | 92.3 | 0 | 0.0 | 0 | |||||
| 09/04/2026 | 3:00:00 | 247 | 77 | 2:06:00 | 76 | 2:30:03 | 76 | 94 | 2:36:01 | 91 | 2:07:00 | 93 | 0 | 0.0 | 0 | |||||
| 09/04/2026 | 4:00:00 | 247 | 77 | 3:30:03 | 76 | 3:55:01 | 76 | 94 | 3:58:05 | 92 | 3:27:01 | 93.9 | 0 | 0.0 | 0 | |||||
| 09/04/2026 | 5:00:00 | 247 | 76 | 4:15:04 | 75 | 4:56:01 | 75 | 95 | 4:52:02 | 94 | 4:02:00 | 94.5 | 0 | 0.0 | 0 | |||||
| 09/04/2026 | 6:00:00 | 247 | 76 | 5:59:03 | 75 | 5:32:04 | 76 | 96 | 5:40:05 | 94 | 5:07:01 | 94.6 | 0 | 0.0 | 0 | |||||
| 09/04/2026 | 7:00:00 | 247 | 83 | 6:59:00 | 76 | 6:00:01 | 83 | 95 | 6:00:01 | 79 | 6:59:01 | 78.96 | 0 | 0.0 | 0 | |||||
| 09/04/2026 | 8:00:00 | 247 | 86 | 8:00:00 | 83 | 7:04:01 | 86 | 80 | 7:06:05 | 74 | 7:54:00 | 74.75 | 0 | 0.0 | 0 | |||||
| 09/04/2026 | 9:00:00 | 247 | 90 | 8:51:01 | 86 | 8:03:00 | 90 | 76 | 8:00:01 | 60 | 8:41:02 | 66.3 | 0 | 0.0 | 57 | |||||
| 09/04/2026 | 10:00:00 | 247 | 94 | 9:55:01 | 90 | 9:00:02 | 93 | 66 | 9:30:05 | 54 | 9:57:04 | 55.72 | 0 | 0.1 | 66 | |||||
| 09/04/2026 | 11:00:00 | 247 | 98 | 10:31:00 | 94 | 10:00:01 | 95 | 57 | 10:00:03 | 44 | 10:52:01 | 47.83 | 0 | 1.2 | 86 | |||||
| 09/04/2026 | 12:00:00 | 247 | 99 | 12:00:00 | 95 | 11:09:05 | 99 | 50 | 11:06:05 | 41 | 11:37:03 | 42.49 | 0 | 2.7 | 83 | |||||
| 09/04/2026 | 13:00:00 | 247 | 100 | 12:58:05 | 95 | 12:07:03 | 99 | 49 | 12:13:05 | 39 | 12:34:01 | 40.94 | 0 | 3.1 | 84 | |||||
| 09/04/2026 | 14:00:00 | 247 | 101 | 13:18:04 | 97 | 13:58:00 | 98 | 45 | 13:58:04 | 38 | 13:39:00 | 43.5 | 0 | 2.7 | 67 | |||||
| 09/04/2026 | 15:00:00 | 247 | 102 | 14:16:01 | 96 | 14:48:02 | 100 | 46 | 14:49:00 | 37 | 14:16:03 | 40.44 | 0 | 0.6 | 57 | |||||
| 09/04/2026 | 16:00:00 | 247 | 101 | 15:04:00 | 97 | 15:44:04 | 100 | 44 | 15:46:01 | 39 | 15:04:02 | 41 | 0 | 0.7 | 56 | |||||
| 09/04/2026 | 17:00:00 | 247 | 101 | 16:08:02 | 97 | 16:56:05 | 97 | 45 | 16:42:04 | 39 | 16:11:01 | 43.96 | 0 | 0.2 | 99 | |||||
| 09/04/2026 | 18:00:00 | 247 | 97 | 17:00:02 | 91 | 17:59:05 | 91 | 56 | 17:57:04 | 43 | 17:10:01 | 55.56 | 0 | 0.0 | 91 | |||||
| 09/04/2026 | 19:00:00 | 247 | 91 | 18:00:02 | 89 | 18:33:03 | 90 | 57 | 18:32:02 | 54 | 18:06:00 | 55.48 | 0 | 0.0 | 0 | |||||
| 09/04/2026 | 20:00:00 | 247 | 90 | 19:00:01 | 85 | 19:55:00 | 85 | 71 | 19:41:04 | 55 | 19:00:05 | 68.26 | 0 | 0.0 | 201 | |||||
| 09/04/2026 | 21:00:00 | 247 | 85 | 20:02:01 | 83 | 20:52:02 | 83 | 77 | 20:59:04 | 68 | 20:00:01 | 76.9 | 0 | 0.0 | 0 | |||||
| 09/04/2026 | 22:00:00 | 247 | 83 | 21:00:01 | 80 | 21:57:00 | 80 | 82 | 21:59:01 | 77 | 21:02:02 | 81.8 | 0 | 0.2 | 201 | |||||
| Average | 86.17 | 82.82 | 84.52 | 75.26 | 67.16 | 71.14 | 0 | 0.3 | 0 | 0 | 0 | 0 | 0 | |||||||
| Total | 0 |